sensor_id;sensor_type;location;lat;lon;timestamp;pressure;altitude;pressure_sealevel;temperature
69420;BMP280;56612;52.030;113.524;2023-04-03T00:01:14;93964.41;;;-6.44
69420;BMP280;56612;52.030;113.524;2023-04-03T00:04:18;93957.34;;;-6.56
69420;BMP280;56612;52.030;113.524;2023-04-03T00:07:22;93975.81;;;-6.26
69420;BMP280;56612;52.030;113.524;2023-04-03T00:10:26;93974.63;;;-5.83
69420;BMP280;56612;52.030;113.524;2023-04-03T00:13:30;93975.50;;;-6.22
69420;BMP280;56612;52.030;113.524;2023-04-03T00:16:34;93969.16;;;-6.34
69420;BMP280;56612;52.030;113.524;2023-04-03T00:19:37;93959.94;;;-6.56
69420;BMP280;56612;52.030;113.524;2023-04-03T00:22:41;93975.16;;;-6.39
69420;BMP280;56612;52.030;113.524;2023-04-03T00:25:44;93961.09;;;-6.23
69420;BMP280;56612;52.030;113.524;2023-04-03T00:28:48;93965.03;;;-5.88
69420;BMP280;56612;52.030;113.524;2023-04-03T00:31:52;93969.31;;;-5.70
69420;BMP280;56612;52.030;113.524;2023-04-03T00:34:56;93978.19;;;-5.65
69420;BMP280;56612;52.030;113.524;2023-04-03T00:38:01;93958.22;;;-5.91
69420;BMP280;56612;52.030;113.524;2023-04-03T00:41:05;93962.38;;;-5.67
69420;BMP280;56612;52.030;113.524;2023-04-03T00:47:42;93952.72;;;-5.30
69420;BMP280;56612;52.030;113.524;2023-04-03T00:50:47;93962.09;;;-4.84
69420;BMP280;56612;52.030;113.524;2023-04-03T00:53:58;93964.75;;;-4.61
69420;BMP280;56612;52.030;113.524;2023-04-03T00:57:03;93964.84;;;-3.92
69420;BMP280;56612;52.030;113.524;2023-04-03T01:00:11;93969.16;;;-4.17
69420;BMP280;56612;52.030;113.524;2023-04-03T01:03:17;93975.09;;;-3.94
69420;BMP280;56612;52.030;113.524;2023-04-03T01:06:24;93963.78;;;-4.04
69420;BMP280;56612;52.030;113.524;2023-04-03T01:09:35;93967.41;;;-3.77
69420;BMP280;56612;52.030;113.524;2023-04-03T01:12:41;93982.22;;;-3.72
69420;BMP280;56612;52.030;113.524;2023-04-03T01:15:48;93969.16;;;-3.87
69420;BMP280;56612;52.030;113.524;2023-04-03T01:18:53;93960.09;;;-3.78
69420;BMP280;56612;52.030;113.524;2023-04-03T01:22:10;93965.88;;;-3.72
69420;BMP280;56612;52.030;113.524;2023-04-03T01:25:20;93959.03;;;-3.60
69420;BMP280;56612;52.030;113.524;2023-04-03T01:28:28;93983.97;;;-4.12
69420;BMP280;56612;52.030;113.524;2023-04-03T01:31:54;93988.44;;;-2.96
69420;BMP280;56612;52.030;113.524;2023-04-03T01:34:58;93955.69;;;-2.65
69420;BMP280;56612;52.030;113.524;2023-04-03T01:38:07;93977.69;;;-2.60
69420;BMP280;56612;52.030;113.524;2023-04-03T01:41:11;93960.28;;;-1.98
69420;BMP280;56612;52.030;113.524;2023-04-03T01:44:15;93971.81;;;-1.59
69420;BMP280;56612;52.030;113.524;2023-04-03T01:47:19;93977.81;;;-1.14
69420;BMP280;56612;52.030;113.524;2023-04-03T01:50:24;93966.19;;;-1.73
69420;BMP280;56612;52.030;113.524;2023-04-03T01:53:28;93965.88;;;-1.25
69420;BMP280;56612;52.030;113.524;2023-04-03T01:56:31;93975.44;;;-0.93
69420;BMP280;56612;52.030;113.524;2023-04-03T01:59:35;93968.75;;;0.07
69420;BMP280;56612;52.030;113.524;2023-04-03T02:02:40;93981.94;;;0.45
69420;BMP280;56612;52.030;113.524;2023-04-03T02:05:45;93980.59;;;-0.58
69420;BMP280;56612;52.030;113.524;2023-04-03T02:08:48;93968.75;;;-0.03
69420;BMP280;56612;52.030;113.524;2023-04-03T02:11:52;93990.09;;;-0.63
69420;BMP280;56612;52.030;113.524;2023-04-03T02:14:56;93974.53;;;-0.51
69420;BMP280;56612;52.030;113.524;2023-04-03T02:18:01;93985.63;;;-0.97
69420;BMP280;56612;52.030;113.524;2023-04-03T02:21:08;93985.94;;;-0.66
69420;BMP280;56612;52.030;113.524;2023-04-03T02:24:11;93970.66;;;1.43
69420;BMP280;56612;52.030;113.524;2023-04-03T02:27:16;93981.78;;;0.72
69420;BMP280;56612;52.030;113.524;2023-04-03T02:30:19;93972.38;;;0.69
69420;BMP280;56612;52.030;113.524;2023-04-03T02:33:23;93971.97;;;0.34
69420;BMP280;56612;52.030;113.524;2023-04-03T02:36:26;93974.13;;;-0.01
69420;BMP280;56612;52.030;113.524;2023-04-03T02:39:36;93953.47;;;1.11
69420;BMP280;56612;52.030;113.524;2023-04-03T02:42:40;93962.81;;;0.06
69420;BMP280;56612;52.030;113.524;2023-04-03T02:45:44;93964.09;;;0.53
69420;BMP280;56612;52.030;113.524;2023-04-03T02:48:48;93954.88;;;1.03
69420;BMP280;56612;52.030;113.524;2023-04-03T02:51:53;93955.84;;;0.98
69420;BMP280;56612;52.030;113.524;2023-04-03T02:54:56;93943.44;;;0.50
69420;BMP280;56612;52.030;113.524;2023-04-03T02:58:00;93948.88;;;1.53
69420;BMP280;56612;52.030;113.524;2023-04-03T03:01:04;93956.91;;;1.14
69420;BMP280;56612;52.030;113.524;2023-04-03T03:04:08;93956.44;;;1.68
69420;BMP280;56612;52.030;113.524;2023-04-03T03:07:11;93945.25;;;2.88
69420;BMP280;56612;52.030;113.524;2023-04-03T03:10:15;93955.91;;;2.90
69420;BMP280;56612;52.030;113.524;2023-04-03T03:13:20;93949.50;;;3.63
69420;BMP280;56612;52.030;113.524;2023-04-03T03:16:23;93946.84;;;2.48
69420;BMP280;56612;52.030;113.524;2023-04-03T03:19:27;93975.84;;;2.15
69420;BMP280;56612;52.030;113.524;2023-04-03T03:22:31;93956.31;;;3.66
69420;BMP280;56612;52.030;113.524;2023-04-03T03:25:39;93952.75;;;3.26
69420;BMP280;56612;52.030;113.524;2023-04-03T03:28:42;93947.56;;;2.93
69420;BMP280;56612;52.030;113.524;2023-04-03T03:31:46;93950.50;;;2.43
69420;BMP280;56612;52.030;113.524;2023-04-03T03:34:50;93940.69;;;1.58
69420;BMP280;56612;52.030;113.524;2023-04-03T03:37:55;93951.22;;;4.70
69420;BMP280;56612;52.030;113.524;2023-04-03T03:40:58;93946.56;;;4.31
69420;BMP280;56612;52.030;113.524;2023-04-03T03:44:04;93949.06;;;2.52
69420;BMP280;56612;52.030;113.524;2023-04-03T03:47:09;93926.19;;;1.69
69420;BMP280;56612;52.030;113.524;2023-04-03T03:50:14;93932.53;;;2.18
69420;BMP280;56612;52.030;113.524;2023-04-03T03:53:19;93935.69;;;2.71
69420;BMP280;56612;52.030;113.524;2023-04-03T03:56:27;93934.91;;;3.74
69420;BMP280;56612;52.030;113.524;2023-04-03T03:59:31;93964.56;;;2.36
69420;BMP280;56612;52.030;113.524;2023-04-03T04:02:34;93931.28;;;0.54
69420;BMP280;56612;52.030;113.524;2023-04-03T04:05:39;93936.63;;;0.85
69420;BMP280;56612;52.030;113.524;2023-04-03T04:08:43;93919.91;;;0.62
69420;BMP280;56612;52.030;113.524;2023-04-03T04:11:48;93928.06;;;0.75
69420;BMP280;56612;52.030;113.524;2023-04-03T04:14:52;93922.69;;;0.73
69420;BMP280;56612;52.030;113.524;2023-04-03T04:17:56;93934.47;;;0.53
69420;BMP280;56612;52.030;113.524;2023-04-03T04:21:00;93938.38;;;2.94
69420;BMP280;56612;52.030;113.524;2023-04-03T04:24:05;93937.38;;;5.24
69420;BMP280;56612;52.030;113.524;2023-04-03T04:27:10;93946.69;;;5.12
69420;BMP280;56612;52.030;113.524;2023-04-03T04:30:14;93933.84;;;5.47
69420;BMP280;56612;52.030;113.524;2023-04-03T04:33:20;93940.59;;;5.64
69420;BMP280;56612;52.030;113.524;2023-04-03T04:36:24;93940.00;;;6.09
69420;BMP280;56612;52.030;113.524;2023-04-03T04:39:28;93945.19;;;5.77
69420;BMP280;56612;52.030;113.524;2023-04-03T04:42:33;93946.13;;;5.54
69420;BMP280;56612;52.030;113.524;2023-04-03T04:45:38;93936.63;;;3.69
69420;BMP280;56612;52.030;113.524;2023-04-03T04:48:41;93933.88;;;4.04
69420;BMP280;56612;52.030;113.524;2023-04-03T04:51:45;93933.59;;;2.25
69420;BMP280;56612;52.030;113.524;2023-04-03T04:54:59;93945.28;;;2.22
69420;BMP280;56612;52.030;113.524;2023-04-03T04:58:03;93948.44;;;4.29
69420;BMP280;56612;52.030;113.524;2023-04-03T05:01:09;93930.44;;;3.65
69420;BMP280;56612;52.030;113.524;2023-04-03T05:04:36;93936.13;;;3.84
69420;BMP280;56612;52.030;113.524;2023-04-03T05:07:46;93929.56;;;3.97
69420;BMP280;56612;52.030;113.524;2023-04-03T05:10:50;93922.78;;;4.45
69420;BMP280;56612;52.030;113.524;2023-04-03T05:13:57;93936.03;;;6.23
69420;BMP280;56612;52.030;113.524;2023-04-03T05:17:02;93925.38;;;5.64
69420;BMP280;56612;52.030;113.524;2023-04-03T05:20:08;93923.72;;;5.30
69420;BMP280;56612;52.030;113.524;2023-04-03T05:23:13;93921.13;;;4.77
69420;BMP280;56612;52.030;113.524;2023-04-03T05:26:17;93925.91;;;5.33
69420;BMP280;56612;52.030;113.524;2023-04-03T05:29:22;93912.53;;;4.51
69420;BMP280;56612;52.030;113.524;2023-04-03T05:32:25;93912.75;;;2.74
69420;BMP280;56612;52.030;113.524;2023-04-03T05:35:45;93917.91;;;4.02
69420;BMP280;56612;52.030;113.524;2023-04-03T05:38:53;93918.53;;;6.48
69420;BMP280;56612;52.030;113.524;2023-04-03T05:42:00;93917.84;;;6.47
69420;BMP280;56612;52.030;113.524;2023-04-03T05:45:05;93932.00;;;5.22
69420;BMP280;56612;52.030;113.524;2023-04-03T05:48:08;93923.03;;;5.02
69420;BMP280;56612;52.030;113.524;2023-04-03T05:51:22;93906.69;;;2.94
69420;BMP280;56612;52.030;113.524;2023-04-03T05:54:29;93909.06;;;3.61
69420;BMP280;56612;52.030;113.524;2023-04-03T05:57:59;93901.75;;;5.14
69420;BMP280;56612;52.030;113.524;2023-04-03T06:01:03;93916.63;;;5.62
69420;BMP280;56612;52.030;113.524;2023-04-03T06:04:08;93913.63;;;9.01
69420;BMP280;56612;52.030;113.524;2023-04-03T06:07:17;93908.69;;;9.76
69420;BMP280;56612;52.030;113.524;2023-04-03T06:10:24;93901.50;;;10.05
69420;BMP280;56612;52.030;113.524;2023-04-03T06:13:27;93916.41;;;7.74
69420;BMP280;56612;52.030;113.524;2023-04-03T06:16:31;93906.84;;;7.18
69420;BMP280;56612;52.030;113.524;2023-04-03T06:19:35;93886.41;;;6.42
69420;BMP280;56612;52.030;113.524;2023-04-03T06:22:39;93909.97;;;5.47
69420;BMP280;56612;52.030;113.524;2023-04-03T06:25:43;93904.09;;;5.49
69420;BMP280;56612;52.030;113.524;2023-04-03T06:28:47;93909.50;;;5.09
69420;BMP280;56612;52.030;113.524;2023-04-03T06:31:50;93903.28;;;6.48
69420;BMP280;56612;52.030;113.524;2023-04-03T06:34:54;93893.72;;;6.12
69420;BMP280;56612;52.030;113.524;2023-04-03T06:37:58;93902.31;;;4.71
69420;BMP280;56612;52.030;113.524;2023-04-03T06:41:02;93886.03;;;5.18
69420;BMP280;56612;52.030;113.524;2023-04-03T06:44:05;93887.84;;;5.84
69420;BMP280;56612;52.030;113.524;2023-04-03T06:47:12;93868.50;;;5.67
69420;BMP280;56612;52.030;113.524;2023-04-03T06:50:16;93895.44;;;5.48
69420;BMP280;56612;52.030;113.524;2023-04-03T06:53:20;93907.53;;;6.24
69420;BMP280;56612;52.030;113.524;2023-04-03T06:56:24;93882.06;;;4.64
69420;BMP280;56612;52.030;113.524;2023-04-03T06:59:28;93904.59;;;5.31
69420;BMP280;56612;52.030;113.524;2023-04-03T07:02:32;93914.91;;;7.87
69420;BMP280;56612;52.030;113.524;2023-04-03T07:05:36;93895.16;;;5.28
69420;BMP280;56612;52.030;113.524;2023-04-03T07:08:40;93902.88;;;6.54
69420;BMP280;56612;52.030;113.524;2023-04-03T07:11:44;93891.38;;;6.65
69420;BMP280;56612;52.030;113.524;2023-04-03T07:14:47;93895.94;;;7.43
69420;BMP280;56612;52.030;113.524;2023-04-03T07:17:51;93916.56;;;7.60
69420;BMP280;56612;52.030;113.524;2023-04-03T07:20:54;93919.59;;;7.71
69420;BMP280;56612;52.030;113.524;2023-04-03T07:23:58;93894.47;;;9.70
69420;BMP280;56612;52.030;113.524;2023-04-03T07:27:02;93898.41;;;10.36
69420;BMP280;56612;52.030;113.524;2023-04-03T07:30:06;93883.41;;;9.79
69420;BMP280;56612;52.030;113.524;2023-04-03T07:33:10;93880.66;;;9.99
69420;BMP280;56612;52.030;113.524;2023-04-03T07:36:17;93894.31;;;9.22
69420;BMP280;56612;52.030;113.524;2023-04-03T07:39:20;93907.31;;;10.71
69420;BMP280;56612;52.030;113.524;2023-04-03T07:42:25;93910.44;;;11.71
69420;BMP280;56612;52.030;113.524;2023-04-03T07:45:31;93885.75;;;9.25
69420;BMP280;56612;52.030;113.524;2023-04-03T07:48:36;93895.75;;;9.47
69420;BMP280;56612;52.030;113.524;2023-04-03T07:51:39;93884.16;;;11.05
69420;BMP280;56612;52.030;113.524;2023-04-03T07:54:43;93876.78;;;11.32
69420;BMP280;56612;52.030;113.524;2023-04-03T07:57:47;93870.22;;;9.40
69420;BMP280;56612;52.030;113.524;2023-04-03T08:00:52;93878.38;;;8.25
69420;BMP280;56612;52.030;113.524;2023-04-03T08:03:56;93864.13;;;6.33
69420;BMP280;56612;52.030;113.524;2023-04-03T08:07:01;93899.75;;;8.09
69420;BMP280;56612;52.030;113.524;2023-04-03T08:10:04;93892.16;;;8.57
69420;BMP280;56612;52.030;113.524;2023-04-03T08:13:12;93890.63;;;10.20
69420;BMP280;56612;52.030;113.524;2023-04-03T08:16:20;93877.28;;;11.24
69420;BMP280;56612;52.030;113.524;2023-04-03T08:19:24;93900.09;;;10.49
69420;BMP280;56612;52.030;113.524;2023-04-03T08:22:28;93887.19;;;10.18
69420;BMP280;56612;52.030;113.524;2023-04-03T08:25:31;93901.56;;;9.39
69420;BMP280;56612;52.030;113.524;2023-04-03T08:28:35;93899.88;;;10.41
69420;BMP280;56612;52.030;113.524;2023-04-03T08:31:38;93882.50;;;9.71
69420;BMP280;56612;52.030;113.524;2023-04-03T08:34:45;93889.88;;;11.49
69420;BMP280;56612;52.030;113.524;2023-04-03T08:37:48;93886.63;;;11.53
69420;BMP280;56612;52.030;113.524;2023-04-03T08:44:46;93884.41;;;9.05
69420;BMP280;56612;52.030;113.524;2023-04-03T08:48:05;93893.00;;;8.06
69420;BMP280;56612;52.030;113.524;2023-04-03T08:51:15;93883.72;;;9.46
69420;BMP280;56612;52.030;113.524;2023-04-03T08:55:12;93893.78;;;8.66
69420;BMP280;56612;52.030;113.524;2023-04-03T08:58:00;93881.72;;;7.54
69420;BMP280;56612;52.030;113.524;2023-04-03T09:01:10;93869.66;;;7.87
69420;BMP280;56612;52.030;113.524;2023-04-03T09:04:20;93876.31;;;6.54
69420;BMP280;56612;52.030;113.524;2023-04-03T09:07:42;93882.00;;;5.58
69420;BMP280;56612;52.030;113.524;2023-04-03T09:10:48;93859.16;;;4.04
69420;BMP280;56612;52.030;113.524;2023-04-03T09:14:02;93882.06;;;2.45
69420;BMP280;56612;52.030;113.524;2023-04-03T09:24:00;93864.25;;;0.75
69420;BMP280;56612;52.030;113.524;2023-04-03T09:27:09;93863.28;;;0.61
69420;BMP280;56612;52.030;113.524;2023-04-03T09:30:22;93869.91;;;0.21
69420;BMP280;56612;52.030;113.524;2023-04-03T09:33:27;93865.81;;;0.58
69420;BMP280;56612;52.030;113.524;2023-04-03T09:36:43;93857.03;;;0.15
69420;BMP280;56612;52.030;113.524;2023-04-03T09:39:51;93863.25;;;0.01
69420;BMP280;56612;52.030;113.524;2023-04-03T09:43:01;93858.97;;;-0.14
69420;BMP280;56612;52.030;113.524;2023-04-03T09:46:25;93867.97;;;-0.08
69420;BMP280;56612;52.030;113.524;2023-04-03T09:49:30;93859.78;;;-0.31
69420;BMP280;56612;52.030;113.524;2023-04-03T09:52:33;93860.94;;;-0.61
69420;BMP280;56612;52.030;113.524;2023-04-03T09:55:44;93868.16;;;-0.52
69420;BMP280;56612;52.030;113.524;2023-04-03T10:05:38;93883.88;;;-0.98
69420;BMP280;56612;52.030;113.524;2023-04-03T10:08:41;93890.69;;;-1.22
69420;BMP280;56612;52.030;113.524;2023-04-03T10:12:07;93892.63;;;-1.57
69420;BMP280;56612;52.030;113.524;2023-04-03T10:15:14;93880.53;;;-1.08
69420;BMP280;56612;52.030;113.524;2023-04-03T10:21:50;93904.34;;;-1.24
69420;BMP280;56612;52.030;113.524;2023-04-03T10:25:09;93877.72;;;-1.64
69420;BMP280;56612;52.030;113.524;2023-04-03T10:31:58;93889.66;;;-2.06
69420;BMP280;56612;52.030;113.524;2023-04-03T10:38:24;93888.72;;;-2.18
69420;BMP280;56612;52.030;113.524;2023-04-03T10:45:28;93896.69;;;-2.33
69420;BMP280;56612;52.030;113.524;2023-04-03T10:55:24;93901.28;;;-2.41
69420;BMP280;56612;52.030;113.524;2023-04-03T10:58:36;93896.81;;;-2.48
69420;BMP280;56612;52.030;113.524;2023-04-03T11:01:42;93898.38;;;-2.45
69420;BMP280;56612;52.030;113.524;2023-04-03T11:11:39;93910.00;;;-2.64
69420;BMP280;56612;52.030;113.524;2023-04-03T11:14:43;93911.06;;;-2.67
69420;BMP280;56612;52.030;113.524;2023-04-03T11:17:55;93907.59;;;-2.69
69420;BMP280;56612;52.030;113.524;2023-04-03T11:21:06;93923.44;;;-2.67
69420;BMP280;56612;52.030;113.524;2023-04-03T11:24:24;93932.41;;;-2.78
69420;BMP280;56612;52.030;113.524;2023-04-03T11:27:34;93928.31;;;-2.89
69420;BMP280;56612;52.030;113.524;2023-04-03T11:30:49;93930.38;;;-2.87
69420;BMP280;56612;52.030;113.524;2023-04-03T11:34:26;93936.31;;;-2.87
69420;BMP280;56612;52.030;113.524;2023-04-03T11:37:39;93938.53;;;-2.83
69420;BMP280;56612;52.030;113.524;2023-04-03T11:40:44;93937.91;;;-2.91
69420;BMP280;56612;52.030;113.524;2023-04-03T11:44:51;93946.09;;;-2.95
69420;BMP280;56612;52.030;113.524;2023-04-03T11:54:44;93958.16;;;-2.99
69420;BMP280;56612;52.030;113.524;2023-04-03T12:01:04;93974.72;;;-3.04
69420;BMP280;56612;52.030;113.524;2023-04-03T12:04:11;93983.25;;;-3.04
69420;BMP280;56612;52.030;113.524;2023-04-03T12:07:18;93983.59;;;-3.00
69420;BMP280;56612;52.030;113.524;2023-04-03T12:10:23;93993.34;;;-3.00
69420;BMP280;56612;52.030;113.524;2023-04-03T12:16:46;93999.22;;;-3.32
69420;BMP280;56612;52.030;113.524;2023-04-03T12:19:50;93993.47;;;-3.31
69420;BMP280;56612;52.030;113.524;2023-04-03T12:23:24;94014.22;;;-3.48
69420;BMP280;56612;52.030;113.524;2023-04-03T12:36:26;94049.56;;;-3.55
69420;BMP280;56612;52.030;113.524;2023-04-03T12:39:47;94040.53;;;-3.69
69420;BMP280;56612;52.030;113.524;2023-04-03T12:46:43;94052.03;;;-3.72
69420;BMP280;56612;52.030;113.524;2023-04-03T12:49:49;94048.53;;;-3.75
69420;BMP280;56612;52.030;113.524;2023-04-03T12:56:26;94056.72;;;-3.78
69420;BMP280;56612;52.030;113.524;2023-04-03T12:59:32;94063.34;;;-3.85
69420;BMP280;56612;52.030;113.524;2023-04-03T13:02:35;94065.75;;;-4.02
69420;BMP280;56612;52.030;113.524;2023-04-03T13:05:38;94064.53;;;-4.01
69420;BMP280;56612;52.030;113.524;2023-04-03T13:08:55;94066.81;;;-4.05
69420;BMP280;56612;52.030;113.524;2023-04-03T13:12:19;94070.09;;;-4.12
69420;BMP280;56612;52.030;113.524;2023-04-03T13:15:28;94072.34;;;-4.09
69420;BMP280;56612;52.030;113.524;2023-04-03T13:18:34;94083.50;;;-4.16
69420;BMP280;56612;52.030;113.524;2023-04-03T13:21:38;94061.50;;;-4.28
69420;BMP280;56612;52.030;113.524;2023-04-03T13:24:49;94070.56;;;-4.37
69420;BMP280;56612;52.030;113.524;2023-04-03T13:27:55;94074.41;;;-4.38
69420;BMP280;56612;52.030;113.524;2023-04-03T13:34:20;94072.59;;;-4.43
69420;BMP280;56612;52.030;113.524;2023-04-03T13:37:30;94071.38;;;-4.42
69420;BMP280;56612;52.030;113.524;2023-04-03T13:40:53;94080.22;;;-4.53
69420;BMP280;56612;52.030;113.524;2023-04-03T13:47:24;94087.88;;;-4.55
69420;BMP280;56612;52.030;113.524;2023-04-03T13:50:28;94096.03;;;-4.58
69420;BMP280;56612;52.030;113.524;2023-04-03T13:56:54;94100.75;;;-4.57
69420;BMP280;56612;52.030;113.524;2023-04-03T14:00:00;94097.75;;;-4.61
69420;BMP280;56612;52.030;113.524;2023-04-03T14:03:27;94097.03;;;-4.69
69420;BMP280;56612;52.030;113.524;2023-04-03T14:06:31;94103.63;;;-4.75
69420;BMP280;56612;52.030;113.524;2023-04-03T14:09:34;94101.53;;;-4.69
69420;BMP280;56612;52.030;113.524;2023-04-03T14:12:38;94104.13;;;-4.69
69420;BMP280;56612;52.030;113.524;2023-04-03T14:15:44;94102.84;;;-4.84
69420;BMP280;56612;52.030;113.524;2023-04-03T14:18:49;94111.19;;;-4.85
69420;BMP280;56612;52.030;113.524;2023-04-03T14:21:54;94110.69;;;-4.84
69420;BMP280;56612;52.030;113.524;2023-04-03T14:24:58;94110.22;;;-5.03
69420;BMP280;56612;52.030;113.524;2023-04-03T14:28:01;94112.47;;;-5.07
69420;BMP280;56612;52.030;113.524;2023-04-03T14:31:04;94114.19;;;-5.10
69420;BMP280;56612;52.030;113.524;2023-04-03T14:34:13;94115.69;;;-5.14
69420;BMP280;56612;52.030;113.524;2023-04-03T14:37:19;94112.84;;;-5.24
69420;BMP280;56612;52.030;113.524;2023-04-03T14:40:26;94105.16;;;-5.29
69420;BMP280;56612;52.030;113.524;2023-04-03T14:43:29;94115.03;;;-5.36
69420;BMP280;56612;52.030;113.524;2023-04-03T14:46:39;94114.31;;;-5.36
69420;BMP280;56612;52.030;113.524;2023-04-03T14:50:03;94117.63;;;-5.36
69420;BMP280;56612;52.030;113.524;2023-04-03T14:53:07;94128.47;;;-5.45
69420;BMP280;56612;52.030;113.524;2023-04-03T14:56:17;94111.47;;;-5.46
69420;BMP280;56612;52.030;113.524;2023-04-03T14:59:21;94120.84;;;-5.64
69420;BMP280;56612;52.030;113.524;2023-04-03T15:05:29;94122.72;;;-5.51
69420;BMP280;56612;52.030;113.524;2023-04-03T15:08:33;94121.34;;;-5.52
69420;BMP280;56612;52.030;113.524;2023-04-03T15:11:37;94125.00;;;-5.68
69420;BMP280;56612;52.030;113.524;2023-04-03T15:14:41;94130.53;;;-5.72
69420;BMP280;56612;52.030;113.524;2023-04-03T15:17:59;94123.84;;;-5.80
69420;BMP280;56612;52.030;113.524;2023-04-03T15:21:04;94121.75;;;-5.82
69420;BMP280;56612;52.030;113.524;2023-04-03T15:24:09;94126.56;;;-5.86
69420;BMP280;56612;52.030;113.524;2023-04-03T15:27:13;94121.75;;;-5.82
69420;BMP280;56612;52.030;113.524;2023-04-03T15:30:19;94129.34;;;-5.84
69420;BMP280;56612;52.030;113.524;2023-04-03T15:33:23;94122.25;;;-5.83
69420;BMP280;56612;52.030;113.524;2023-04-03T15:36:27;94121.69;;;-5.90
69420;BMP280;56612;52.030;113.524;2023-04-03T15:39:36;94123.69;;;-5.96
69420;BMP280;56612;52.030;113.524;2023-04-03T15:42:40;94121.00;;;-5.90
69420;BMP280;56612;52.030;113.524;2023-04-03T15:45:45;94118.47;;;-5.96
69420;BMP280;56612;52.030;113.524;2023-04-03T15:48:49;94115.00;;;-5.98
69420;BMP280;56612;52.030;113.524;2023-04-03T15:51:53;94118.44;;;-6.03
69420;BMP280;56612;52.030;113.524;2023-04-03T15:54:56;94118.88;;;-5.92
69420;BMP280;56612;52.030;113.524;2023-04-03T15:58:00;94110.47;;;-5.98
69420;BMP280;56612;52.030;113.524;2023-04-03T16:01:04;94111.03;;;-6.26
69420;BMP280;56612;52.030;113.524;2023-04-03T16:04:09;94105.13;;;-6.13
69420;BMP280;56612;52.030;113.524;2023-04-03T16:07:12;94103.81;;;-6.20
69420;BMP280;56612;52.030;113.524;2023-04-03T16:10:17;94103.66;;;-6.35
69420;BMP280;56612;52.030;113.524;2023-04-03T16:13:21;94099.97;;;-6.39
69420;BMP280;56612;52.030;113.524;2023-04-03T16:16:25;94106.88;;;-6.42
69420;BMP280;56612;52.030;113.524;2023-04-03T16:19:30;94108.09;;;-6.43
69420;BMP280;56612;52.030;113.524;2023-04-03T16:22:33;94099.41;;;-6.46
69420;BMP280;56612;52.030;113.524;2023-04-03T16:25:37;94101.50;;;-6.44
69420;BMP280;56612;52.030;113.524;2023-04-03T16:28:41;94100.00;;;-6.53
69420;BMP280;56612;52.030;113.524;2023-04-03T16:31:44;94101.56;;;-6.50
69420;BMP280;56612;52.030;113.524;2023-04-03T16:34:48;94088.00;;;-6.56
69420;BMP280;56612;52.030;113.524;2023-04-03T16:37:51;94100.19;;;-6.64
69420;BMP280;56612;52.030;113.524;2023-04-03T16:40:55;94100.59;;;-6.73
69420;BMP280;56612;52.030;113.524;2023-04-03T16:44:02;94104.81;;;-6.70
69420;BMP280;56612;52.030;113.524;2023-04-03T16:47:06;94092.63;;;-6.75
69420;BMP280;56612;52.030;113.524;2023-04-03T16:50:11;94095.72;;;-6.63
69420;BMP280;56612;52.030;113.524;2023-04-03T16:53:15;94094.13;;;-6.66
69420;BMP280;56612;52.030;113.524;2023-04-03T16:56:19;94082.22;;;-6.75
69420;BMP280;56612;52.030;113.524;2023-04-03T16:59:23;94087.91;;;-6.63
69420;BMP280;56612;52.030;113.524;2023-04-03T17:02:27;94082.31;;;-6.54
69420;BMP280;56612;52.030;113.524;2023-04-03T17:05:31;94081.31;;;-6.64
69420;BMP280;56612;52.030;113.524;2023-04-03T17:08:35;94084.03;;;-6.70
69420;BMP280;56612;52.030;113.524;2023-04-03T17:11:38;94078.50;;;-6.80
69420;BMP280;56612;52.030;113.524;2023-04-03T17:14:42;94075.53;;;-6.84
69420;BMP280;56612;52.030;113.524;2023-04-03T17:17:46;94083.31;;;-6.71
69420;BMP280;56612;52.030;113.524;2023-04-03T17:20:50;94076.03;;;-6.72
69420;BMP280;56612;52.030;113.524;2023-04-03T17:23:56;94081.94;;;-6.72
69420;BMP280;56612;52.030;113.524;2023-04-03T17:27:00;94077.91;;;-6.73
69420;BMP280;56612;52.030;113.524;2023-04-03T17:30:05;94080.03;;;-6.84
69420;BMP280;56612;52.030;113.524;2023-04-03T17:33:09;94079.34;;;-6.85
69420;BMP280;56612;52.030;113.524;2023-04-03T17:36:13;94076.81;;;-6.90
69420;BMP280;56612;52.030;113.524;2023-04-03T17:39:17;94063.75;;;-6.85
69420;BMP280;56612;52.030;113.524;2023-04-03T17:42:21;94064.22;;;-6.86
69420;BMP280;56612;52.030;113.524;2023-04-03T17:45:25;94059.53;;;-7.01
69420;BMP280;56612;52.030;113.524;2023-04-03T17:48:30;94066.84;;;-6.86
69420;BMP280;56612;52.030;113.524;2023-04-03T17:51:34;94064.44;;;-6.84
69420;BMP280;56612;52.030;113.524;2023-04-03T17:54:38;94062.53;;;-6.84
69420;BMP280;56612;52.030;113.524;2023-04-03T17:57:43;94055.34;;;-6.78
69420;BMP280;56612;52.030;113.524;2023-04-03T18:00:47;94053.84;;;-6.86
69420;BMP280;56612;52.030;113.524;2023-04-03T18:03:54;94054.75;;;-6.84
69420;BMP280;56612;52.030;113.524;2023-04-03T18:06:58;94048.63;;;-6.73
69420;BMP280;56612;52.030;113.524;2023-04-03T18:10:05;94036.25;;;-6.93
69420;BMP280;56612;52.030;113.524;2023-04-03T18:13:10;94036.59;;;-6.97
69420;BMP280;56612;52.030;113.524;2023-04-03T18:16:15;94033.34;;;-7.03
69420;BMP280;56612;52.030;113.524;2023-04-03T18:19:18;94030.06;;;-7.04
69420;BMP280;56612;52.030;113.524;2023-04-03T18:22:25;94027.56;;;-7.09
69420;BMP280;56612;52.030;113.524;2023-04-03T18:25:30;94017.97;;;-7.14
69420;BMP280;56612;52.030;113.524;2023-04-03T18:28:35;94026.28;;;-7.16
69420;BMP280;56612;52.030;113.524;2023-04-03T18:31:41;94021.69;;;-7.10
69420;BMP280;56612;52.030;113.524;2023-04-03T18:34:45;94022.59;;;-7.07
69420;BMP280;56612;52.030;113.524;2023-04-03T18:37:48;94020.28;;;-7.11
69420;BMP280;56612;52.030;113.524;2023-04-03T18:40:52;94019.38;;;-7.13
69420;BMP280;56612;52.030;113.524;2023-04-03T18:43:56;94010.50;;;-7.18
69420;BMP280;56612;52.030;113.524;2023-04-03T18:47:02;94018.47;;;-7.16
69420;BMP280;56612;52.030;113.524;2023-04-03T18:50:06;94011.00;;;-7.19
69420;BMP280;56612;52.030;113.524;2023-04-03T18:53:10;94010.56;;;-7.24
69420;BMP280;56612;52.030;113.524;2023-04-03T18:56:14;94010.09;;;-7.22
69420;BMP280;56612;52.030;113.524;2023-04-03T18:59:18;94006.41;;;-7.27
69420;BMP280;56612;52.030;113.524;2023-04-03T19:02:22;94012.19;;;-7.34